createdAt,value
2022-08-25T00:00:34.496Z,26.96
2022-08-25T00:03:06.181Z,26.59
2022-08-25T00:05:36.436Z,27.03
2022-08-25T00:08:07.872Z,27.18
2022-08-25T00:10:40.169Z,27.29
2022-08-25T00:13:12.546Z,27.13
2022-08-25T00:15:43.757Z,26.74
2022-08-25T00:18:19.865Z,26.71
2022-08-25T00:20:50.729Z,26.97
2022-08-25T00:23:22.197Z,27.07
2022-08-25T00:25:58.026Z,27.02
2022-08-25T00:28:28.477Z,26.21
2022-08-25T00:30:59.942Z,26.22
2022-08-25T00:33:34.677Z,26.59
2022-08-25T00:36:05.044Z,25.94
2022-08-25T00:38:35.547Z,25.26
2022-08-25T00:41:08.176Z,23.59
2022-08-25T00:43:56.036Z,24.18
2022-08-25T00:46:31.136Z,23.36
2022-08-25T00:49:41.502Z,23.78
2022-08-25T00:52:19.816Z,23.53
2022-08-25T00:54:53.100Z,24.55
2022-08-25T00:57:34.626Z,24.50
2022-08-25T01:00:18.399Z,24.70
2022-08-25T01:02:48.920Z,25.61
2022-08-25T01:05:20.592Z,25.87
2022-08-25T01:07:51.993Z,25.95
2022-08-25T01:10:24.035Z,25.66
2022-08-25T01:12:58.145Z,25.89
2022-08-25T01:15:29.603Z,26.08
2022-08-25T01:18:01.170Z,26.13
2022-08-25T01:20:33.830Z,26.17
2022-08-25T01:23:04.981Z,26.25
2022-08-25T01:25:45.487Z,26.33
2022-08-25T01:30:45.082Z,26.42
2022-08-25T01:33:15.216Z,26.60
2022-08-25T01:35:46.500Z,26.65
2022-08-25T01:38:17.164Z,26.62
2022-08-25T01:40:48.246Z,26.69
2022-08-25T01:43:23.862Z,26.66
2022-08-25T01:45:54.661Z,26.52
2022-08-25T01:48:24.714Z,26.65
2022-08-25T01:50:54.223Z,26.63
2022-08-25T01:53:25.913Z,26.49
2022-08-25T01:56:09.794Z,26.62
2022-08-25T01:58:44.044Z,26.09
2022-08-25T02:01:22.694Z,25.55
2022-08-25T02:03:55.282Z,24.98
2022-08-25T02:06:33.270Z,24.58
2022-08-25T02:09:08.367Z,24.27
2022-08-25T02:11:40.879Z,23.63
2022-08-25T02:14:13.097Z,20.76
2022-08-25T02:16:47.688Z,21.99
2022-08-25T02:19:19.713Z,23.27
2022-08-25T02:21:49.840Z,24.08
2022-08-25T02:24:20.121Z,23.87
2022-08-25T02:26:51.907Z,23.54
2022-08-25T02:29:21.917Z,23.47
2022-08-25T02:31:52.451Z,23.40
2022-08-25T02:34:23.520Z,23.70
2022-08-25T02:36:53.954Z,23.85
2022-08-25T02:39:23.442Z,23.52
2022-08-25T02:41:53.296Z,24.06
2022-08-25T02:44:23.677Z,23.67
2022-08-25T02:46:53.553Z,24.00
2022-08-25T02:49:23.981Z,24.56
2022-08-25T02:51:53.578Z,24.70
2022-08-25T02:54:24.347Z,24.83
2022-08-25T02:56:55.126Z,24.04
2022-08-25T02:59:25.114Z,24.23
2022-08-25T03:01:55.638Z,24.44
2022-08-25T03:04:25.880Z,24.64
2022-08-25T03:06:56.452Z,24.81
2022-08-25T03:09:27.956Z,24.91
2022-08-25T03:11:58.454Z,25.08
2022-08-25T03:14:28.403Z,25.08
2022-08-25T03:16:59.304Z,25.21
2022-08-25T03:19:29.317Z,25.17
2022-08-25T03:22:00.826Z,25.08
2022-08-25T03:24:30.861Z,25.20
2022-08-25T03:27:00.930Z,25.17
2022-08-25T03:29:34.793Z,25.33
2022-08-25T03:32:05.128Z,24.92
2022-08-25T03:34:35.642Z,24.39
2022-08-25T03:37:07.229Z,24.28
2022-08-25T03:39:37.606Z,24.56
2022-08-25T03:42:07.161Z,24.81
2022-08-25T03:44:37.027Z,25.09
2022-08-25T03:47:07.695Z,25.08
2022-08-25T03:49:37.739Z,25.11
2022-08-25T03:52:08.125Z,25.10
2022-08-25T03:54:37.645Z,25.16
2022-08-25T03:57:07.559Z,25.05
2022-08-25T03:59:39.986Z,24.83
2022-08-25T04:02:10.218Z,24.78
2022-08-25T04:04:41.867Z,24.64
2022-08-25T04:07:12.347Z,24.84
2022-08-25T04:09:42.899Z,25.00
2022-08-25T04:12:12.993Z,24.95
2022-08-25T04:14:44.187Z,24.17
2022-08-25T04:17:14.294Z,24.59
2022-08-25T04:19:45.130Z,24.35
2022-08-25T04:22:15.211Z,23.89
2022-08-25T04:24:46.233Z,24.13
2022-08-25T04:27:17.655Z,24.33
2022-08-25T04:29:48.297Z,24.73
2022-08-25T04:32:18.374Z,24.61
2022-08-25T04:34:49.784Z,24.71
2022-08-25T04:37:19.862Z,24.23
2022-08-25T04:39:49.680Z,23.79
2022-08-25T04:42:20.409Z,24.01
2022-08-25T04:44:51.272Z,24.36
2022-08-25T04:47:21.837Z,23.90
2022-08-25T04:49:52.006Z,23.82
2022-08-25T04:52:22.630Z,23.70
2022-08-25T04:54:52.742Z,24.09
2022-08-25T04:57:23.374Z,24.39
2022-08-25T04:59:53.702Z,24.17
2022-08-25T05:02:26.666Z,24.32
2022-08-25T05:04:57.180Z,24.00
2022-08-25T05:07:27.810Z,24.21
2022-08-25T05:09:57.683Z,24.24
2022-08-25T05:12:28.248Z,24.35
2022-08-25T05:15:18.955Z,24.09
2022-08-25T05:17:51.635Z,23.54
2022-08-25T05:20:26.501Z,23.21
2022-08-25T05:22:57.066Z,22.90
2022-08-25T05:25:27.149Z,22.73
2022-08-25T05:27:58.870Z,23.41
2022-08-25T05:30:28.989Z,23.75
2022-08-25T05:32:59.547Z,23.83
2022-08-25T05:35:29.621Z,24.07
2022-08-25T05:38:00.179Z,24.12
2022-08-25T05:40:30.331Z,24.20
2022-08-25T05:43:01.054Z,23.98
2022-08-25T05:45:31.200Z,24.21
2022-08-25T05:48:02.178Z,24.36
2022-08-25T05:50:32.325Z,24.43
2022-08-25T05:53:03.629Z,24.45
2022-08-25T05:55:33.651Z,24.57
2022-08-25T05:58:04.515Z,24.52
2022-08-25T06:00:34.641Z,24.52
2022-08-25T06:03:05.361Z,23.60
2022-08-25T06:05:35.922Z,24.07
2022-08-25T06:08:06.794Z,23.12
2022-08-25T06:10:37.242Z,22.76
2022-08-25T06:13:07.771Z,22.90
2022-08-25T06:15:37.755Z,21.25
2022-08-25T06:18:08.576Z,21.99
2022-08-25T06:20:38.710Z,22.93
2022-08-25T06:23:08.578Z,23.14
2022-08-25T06:25:39.158Z,22.84
2022-08-25T06:28:08.859Z,23.24
2022-08-25T06:30:40.739Z,23.36
2022-08-25T06:33:11.398Z,23.62
2022-08-25T06:35:44.892Z,23.70
2022-08-25T06:38:15.971Z,23.69
2022-08-25T06:40:49.330Z,23.66
2022-08-25T06:43:21.940Z,23.48
2022-08-25T06:45:52.004Z,23.43
2022-08-25T06:48:22.588Z,23.53
2022-08-25T06:50:55.678Z,22.88
2022-08-25T06:53:26.244Z,23.42
2022-08-25T06:56:06.327Z,23.54
2022-08-25T06:58:37.382Z,23.50
2022-08-25T07:01:20.045Z,23.54
2022-08-25T07:03:52.710Z,23.63
2022-08-25T07:06:26.550Z,22.52
2022-08-25T07:08:58.019Z,23.46
2022-08-25T07:11:28.321Z,23.43
2022-08-25T07:13:59.017Z,23.29
2022-08-25T07:16:29.798Z,23.33
2022-08-25T07:19:03.128Z,23.52
2022-08-25T07:21:35.612Z,23.54
2022-08-25T07:24:11.603Z,23.69
2022-08-25T07:26:44.490Z,22.94
2022-08-25T07:29:19.288Z,22.65
2022-08-25T07:31:52.132Z,22.32
2022-08-25T07:34:40.756Z,23.22
2022-08-25T07:37:23.804Z,22.66
2022-08-25T07:40:05.880Z,22.46
2022-08-25T07:42:36.131Z,21.97
2022-08-25T07:45:09.404Z,21.71
2022-08-25T07:47:40.619Z,21.63
2022-08-25T07:50:13.624Z,22.16
2022-08-25T07:52:44.789Z,22.54
2022-08-25T07:55:25.632Z,22.55
2022-08-25T07:57:57.573Z,22.82
2022-08-25T08:00:31.114Z,22.83
2022-08-25T08:03:03.714Z,22.82
2022-08-25T08:05:35.608Z,23.08
2022-08-25T08:08:07.407Z,23.21
2022-08-25T08:11:02.725Z,23.43
2022-08-25T08:13:31.889Z,23.45
2022-08-25T08:16:02.985Z,23.66
2022-08-25T08:18:35.968Z,23.68
2022-08-25T08:21:06.911Z,23.63
2022-08-25T08:23:38.850Z,23.67
2022-08-25T08:26:08.803Z,23.72
2022-08-25T08:28:39.856Z,23.70
2022-08-25T08:31:10.590Z,23.43
2022-08-25T08:33:41.455Z,23.44
2022-08-25T08:36:13.710Z,23.44
2022-08-25T08:38:46.554Z,23.49
2022-08-25T08:42:11.341Z,23.12
2022-08-25T08:44:49.079Z,23.51
2022-08-25T08:47:34.483Z,23.28
2022-08-25T08:50:28.052Z,23.26
2022-08-25T08:53:15.084Z,22.91
2022-08-25T08:55:53.708Z,22.54
2022-08-25T08:58:26.441Z,23.00
2022-08-25T09:01:02.982Z,22.65
2022-08-25T09:03:41.147Z,22.41
2022-08-25T09:06:26.606Z,22.18
2022-08-25T09:09:00.621Z,22.34
2022-08-25T09:11:43.253Z,22.49
2022-08-25T09:14:30.430Z,22.91
2022-08-25T09:17:07.278Z,22.82
2022-08-25T09:20:18.341Z,22.75
2022-08-25T09:22:54.370Z,23.29
2022-08-25T09:25:53.109Z,23.41
2022-08-25T09:28:44.523Z,23.52
2022-08-25T09:31:41.077Z,23.45
2022-08-25T09:34:20.290Z,23.54
2022-08-25T09:36:53.988Z,23.41
2022-08-25T09:39:24.980Z,23.38
2022-08-25T09:41:59.474Z,23.62
2022-08-25T09:44:34.752Z,23.17
2022-08-25T09:47:16.274Z,23.21
2022-08-25T09:50:04.621Z,23.37
2022-08-25T09:52:45.446Z,23.54
2022-08-25T09:55:15.900Z,23.26
2022-08-25T09:57:47.006Z,23.51
2022-08-25T10:00:25.440Z,23.61
2022-08-25T10:03:13.902Z,23.62
2022-08-25T10:06:00.486Z,23.65
2022-08-25T10:08:32.533Z,23.76
2022-08-25T10:11:08.718Z,23.53
2022-08-25T10:13:52.802Z,23.81
2022-08-25T10:16:35.666Z,23.94
2022-08-25T10:19:14.479Z,24.04
2022-08-25T10:21:45.361Z,24.17
2022-08-25T10:24:16.059Z,24.26
2022-08-25T10:27:14.218Z,24.34
2022-08-25T10:29:53.987Z,24.29
2022-08-25T10:33:19.447Z,24.35
2022-08-25T10:35:55.622Z,24.98
2022-08-25T10:38:36.414Z,25.15
2022-08-25T10:41:32.092Z,25.44
2022-08-25T10:44:08.598Z,25.09
2022-08-25T10:46:49.062Z,25.71
2022-08-25T10:49:31.055Z,25.66
2022-08-25T10:52:12.323Z,26.16
2022-08-25T10:54:51.816Z,26.16
2022-08-25T10:57:40.950Z,26.62
2022-08-25T11:00:20.032Z,26.96
2022-08-25T11:03:17.459Z,27.24
2022-08-25T11:06:03.230Z,27.72
2022-08-25T11:08:43.611Z,28.05
2022-08-25T11:11:25.684Z,28.23
2022-08-25T11:14:05.680Z,28.49
2022-08-25T11:17:08.604Z,28.96
2022-08-25T11:19:43.988Z,29.32
2022-08-25T11:22:23.267Z,29.81
2022-08-25T11:25:26.760Z,30.16
2022-08-25T11:28:09.942Z,30.26
2022-08-25T11:30:41.845Z,30.54
2022-08-25T11:33:21.650Z,30.94
2022-08-25T11:36:01.279Z,31.15
2022-08-25T11:38:44.871Z,31.19
2022-08-25T11:41:27.248Z,31.65
2022-08-25T11:44:12.763Z,31.52
2022-08-25T11:46:53.066Z,31.08
2022-08-25T11:49:44.630Z,32.09
2022-08-25T11:52:37.755Z,32.54
2022-08-25T11:55:23.142Z,33.09
2022-08-25T11:58:14.582Z,33.67
2022-08-25T12:00:47.521Z,33.74
2022-08-25T12:03:38.752Z,34.21
2022-08-25T12:06:19.674Z,34.42
2022-08-25T12:09:01.695Z,34.89
2022-08-25T12:11:44.118Z,34.89
2022-08-25T12:14:27.974Z,34.85
2022-08-25T12:17:01.511Z,35.61
2022-08-25T12:19:37.975Z,35.63
2022-08-25T12:22:11.945Z,35.82
2022-08-25T12:24:57.352Z,36.40
2022-08-25T12:27:38.263Z,34.67
2022-08-25T12:30:20.782Z,35.62
2022-08-25T12:33:07.115Z,36.51
2022-08-25T12:35:51.552Z,37.21
2022-08-25T12:38:42.497Z,36.70
2022-08-25T12:41:15.762Z,36.35
2022-08-25T12:43:51.184Z,37.42
2022-08-25T12:46:28.615Z,37.80
2022-08-25T12:49:25.146Z,37.60
2022-08-25T12:52:02.099Z,36.40
2022-08-25T12:54:38.533Z,37.75
2022-08-25T12:57:40.793Z,37.61
2022-08-25T13:00:22.572Z,36.81
2022-08-25T13:03:13.662Z,37.46
2022-08-25T13:05:53.979Z,38.14
2022-08-25T13:08:48.539Z,35.84
2022-08-25T13:11:48.162Z,37.63
2022-08-25T13:14:26.861Z,38.64
2022-08-25T13:17:02.008Z,39.31
2022-08-25T13:19:35.230Z,39.12
2022-08-25T13:22:16.714Z,39.34
2022-08-25T13:24:51.665Z,37.62
2022-08-25T13:27:28.837Z,39.38
2022-08-25T13:30:03.941Z,40.07
2022-08-25T13:32:40.127Z,40.17
2022-08-25T13:35:32.450Z,40.59
2022-08-25T13:38:17.320Z,39.88
2022-08-25T13:40:47.964Z,40.50
2022-08-25T13:43:27.362Z,40.40
2022-08-25T13:45:58.121Z,40.67
2022-08-25T13:48:39.440Z,41.09
2022-08-25T13:51:21.428Z,40.26
2022-08-25T13:54:01.478Z,39.12
2022-08-25T13:56:41.025Z,39.84
2022-08-25T13:59:28.861Z,40.16
2022-08-25T14:02:03.652Z,41.21
2022-08-25T14:04:51.764Z,41.22
2022-08-25T14:07:23.523Z,41.03
2022-08-25T14:10:38.614Z,41.81
2022-08-25T14:13:18.894Z,41.33
2022-08-25T14:15:49.715Z,42.61
2022-08-25T14:18:33.666Z,42.67
2022-08-25T14:21:12.565Z,42.54
2022-08-25T14:23:43.866Z,42.86
2022-08-25T14:26:14.537Z,42.69
2022-08-25T14:28:44.843Z,43.47
2022-08-25T14:31:20.263Z,43.90
2022-08-25T14:33:58.167Z,43.44
2022-08-25T14:36:32.183Z,43.94
2022-08-25T14:39:08.841Z,44.35
2022-08-25T14:41:45.292Z,42.84
2022-08-25T14:44:23.681Z,40.70
2022-08-25T14:46:59.059Z,42.45
2022-08-25T14:49:35.346Z,40.66
2022-08-25T14:52:15.681Z,43.29
2022-08-25T14:54:48.189Z,43.12
2022-08-25T14:57:18.874Z,43.33
2022-08-25T14:59:49.710Z,42.86
2022-08-25T15:02:30.571Z,42.40
2022-08-25T15:05:06.982Z,42.92
2022-08-25T15:07:56.085Z,42.86
2022-08-25T15:10:26.353Z,43.60
2022-08-25T15:12:56.966Z,44.36
2022-08-25T15:15:29.869Z,43.99
2022-08-25T15:18:01.715Z,43.73
2022-08-25T15:20:31.919Z,44.78
2022-08-25T15:23:02.722Z,44.12
2022-08-25T15:25:33.195Z,45.05
2022-08-25T15:28:10.298Z,44.58
2022-08-25T15:30:44.510Z,42.20
2022-08-25T15:33:16.827Z,43.27
2022-08-25T15:35:48.031Z,44.42
2022-08-25T15:38:21.759Z,45.13
2022-08-25T15:40:52.246Z,45.05
2022-08-25T15:43:23.690Z,45.31
2022-08-25T15:45:56.114Z,45.21
2022-08-25T15:48:26.751Z,44.72
2022-08-25T15:50:59.874Z,44.07
2022-08-25T15:53:31.058Z,42.84
2022-08-25T15:56:05.688Z,43.88
2022-08-25T15:58:37.761Z,41.44
2022-08-25T16:01:23.225Z,41.41
2022-08-25T16:03:55.126Z,43.28
2022-08-25T16:06:27.236Z,44.05
2022-08-25T16:08:57.903Z,44.24
2022-08-25T16:11:32.510Z,44.86
2022-08-25T16:14:03.571Z,45.40
2022-08-25T16:16:34.834Z,44.61
2022-08-25T16:19:09.958Z,45.02
2022-08-25T16:21:47.477Z,45.57
2022-08-25T16:24:18.761Z,44.94
2022-08-25T16:26:51.654Z,45.49
2022-08-25T16:29:23.054Z,45.28
2022-08-25T16:31:55.206Z,45.30
2022-08-25T16:34:28.533Z,45.08
2022-08-25T16:37:01.230Z,44.03
2022-08-25T16:39:31.984Z,43.10
2022-08-25T16:42:02.395Z,43.13
2022-08-25T16:44:32.942Z,43.02
2022-08-25T16:47:03.352Z,44.13
2022-08-25T16:49:33.914Z,45.16
2022-08-25T16:52:24.421Z,45.75
2022-08-25T16:55:14.779Z,43.03
2022-08-25T16:57:53.276Z,45.13
2022-08-25T17:00:26.576Z,45.04
2022-08-25T17:03:00.555Z,45.17
2022-08-25T17:05:32.263Z,44.48
2022-08-25T17:08:21.711Z,41.99
2022-08-25T17:10:52.355Z,44.00
2022-08-25T17:13:22.817Z,40.96
2022-08-25T17:15:53.504Z,41.31
2022-08-25T17:18:24.022Z,40.78
2022-08-25T17:21:07.193Z,43.51
2022-08-25T17:23:40.125Z,44.04
2022-08-25T17:26:14.801Z,42.67
2022-08-25T17:28:45.718Z,42.59
2022-08-25T17:31:16.891Z,41.21
2022-08-25T17:33:48.195Z,40.64
2022-08-25T17:36:19.710Z,40.32
2022-08-25T17:38:57.894Z,40.11
2022-08-25T17:41:28.761Z,40.25
2022-08-25T17:44:00.469Z,41.23
2022-08-25T17:46:31.428Z,38.99
2022-08-25T17:49:01.836Z,39.27
2022-08-25T17:51:35.161Z,40.35
2022-08-25T17:54:05.577Z,38.20
2022-08-25T17:56:36.319Z,37.32
2022-08-25T17:59:06.644Z,39.00
2022-08-25T18:01:40.873Z,38.97
2022-08-25T18:04:16.988Z,38.28
2022-08-25T18:06:49.594Z,37.92
2022-08-25T18:09:20.223Z,37.12
2022-08-25T18:11:51.570Z,36.63
2022-08-25T18:14:25.403Z,37.32
2022-08-25T18:16:56.541Z,37.01
2022-08-25T18:19:26.775Z,36.22
2022-08-25T18:21:57.362Z,35.80
2022-08-25T18:24:27.963Z,35.65
2022-08-25T18:26:58.525Z,35.53
2022-08-25T18:29:29.666Z,35.03
2022-08-25T18:32:00.597Z,35.45
2022-08-25T18:34:30.983Z,35.41
2022-08-25T18:37:21.454Z,35.13
2022-08-25T18:40:11.874Z,35.60
2022-08-25T18:42:42.567Z,34.92
2022-08-25T18:45:13.174Z,33.93
2022-08-25T18:47:43.745Z,33.75
2022-08-25T18:50:13.925Z,33.92
2022-08-25T18:52:45.205Z,33.86
2022-08-25T18:55:15.867Z,33.94
2022-08-25T18:57:47.488Z,33.71
2022-08-25T19:00:23.712Z,33.44
2022-08-25T19:02:57.517Z,33.76
2022-08-25T19:05:36.886Z,34.42
2022-08-25T19:08:10.575Z,33.89
2022-08-25T19:10:44.067Z,33.63
2022-08-25T19:13:14.674Z,33.53
2022-08-25T19:15:46.187Z,33.48
2022-08-25T19:18:17.225Z,33.36
2022-08-25T19:20:47.675Z,34.13
2022-08-25T19:23:18.566Z,34.18
2022-08-25T19:25:49.266Z,33.41
2022-08-25T19:28:20.126Z,33.66
2022-08-25T19:30:51.021Z,33.41
2022-08-25T19:33:42.290Z,33.00
2022-08-25T19:36:13.663Z,32.23
2022-08-25T19:38:45.561Z,32.35
2022-08-25T19:41:15.944Z,31.91
2022-08-25T19:43:54.968Z,31.68
2022-08-25T19:46:36.676Z,31.85
2022-08-25T19:49:14.908Z,32.00
2022-08-25T19:51:50.482Z,31.78
2022-08-25T19:54:31.958Z,31.46
2022-08-25T19:57:02.597Z,31.77
2022-08-25T19:59:42.349Z,32.18
2022-08-25T20:02:17.744Z,32.29
2022-08-25T20:04:54.293Z,33.64
2022-08-25T20:07:28.763Z,32.10
2022-08-25T20:10:00.296Z,31.20
2022-08-25T20:12:33.398Z,30.83
2022-08-25T20:15:06.510Z,30.25
2022-08-25T20:17:36.905Z,32.89
2022-08-25T20:20:15.100Z,33.39
2022-08-25T20:22:45.271Z,33.02
2022-08-25T20:25:23.393Z,33.79
2022-08-25T20:27:56.564Z,33.84
2022-08-25T20:30:31.085Z,34.19
2022-08-25T20:33:01.452Z,34.12
2022-08-25T20:35:32.293Z,33.98
2022-08-25T20:38:02.626Z,34.49
2022-08-25T20:40:33.813Z,34.41
2022-08-25T20:43:04.487Z,34.15
2022-08-25T20:45:35.541Z,33.72
2022-08-25T20:48:06.156Z,33.32
2022-08-25T20:50:40.835Z,32.78
2022-08-25T20:53:13.517Z,33.34
2022-08-25T20:55:45.059Z,32.95
2022-08-25T20:58:16.051Z,32.33
2022-08-25T21:00:47.229Z,31.93
2022-08-25T21:03:17.439Z,31.53
2022-08-25T21:05:54.091Z,31.74
2022-08-25T21:08:25.477Z,31.44
2022-08-25T21:10:58.773Z,30.71
2022-08-25T21:13:29.214Z,30.60
2022-08-25T21:16:06.354Z,30.99
2022-08-25T21:18:37.791Z,31.16
2022-08-25T21:21:16.641Z,30.83
2022-08-25T21:23:53.124Z,30.81
2022-08-25T21:26:26.497Z,31.19
2022-08-25T21:29:02.984Z,31.38
2022-08-25T21:31:35.116Z,31.59
2022-08-25T21:34:05.797Z,31.48
2022-08-25T21:36:36.392Z,31.51
2022-08-25T21:39:06.497Z,31.52
2022-08-25T21:41:40.222Z,31.36
2022-08-25T21:44:11.745Z,30.81
2022-08-25T21:46:51.216Z,30.77
2022-08-25T21:49:25.834Z,30.53
2022-08-25T21:52:00.811Z,30.47
2022-08-25T21:54:32.193Z,30.62
2022-08-25T21:57:06.539Z,30.10
2022-08-25T21:59:39.334Z,29.61
2022-08-25T22:02:12.847Z,29.90
2022-08-25T22:04:43.943Z,30.49
2022-08-25T22:07:17.815Z,30.63
2022-08-25T22:09:48.643Z,30.34
2022-08-25T22:12:23.430Z,30.41
2022-08-25T22:14:55.499Z,30.55
2022-08-25T22:17:26.069Z,30.25
2022-08-25T22:19:57.716Z,30.02
2022-08-25T22:22:27.754Z,30.22
2022-08-25T22:24:57.578Z,30.63
2022-08-25T22:27:28.005Z,30.69
2022-08-25T22:29:59.610Z,30.67
2022-08-25T22:32:30.582Z,30.84
2022-08-25T22:35:00.779Z,30.90
2022-08-25T22:37:32.312Z,30.94
2022-08-25T22:40:07.336Z,30.92
2022-08-25T22:42:37.907Z,30.97
2022-08-25T22:45:08.399Z,30.96
2022-08-25T22:47:39.319Z,30.88
2022-08-25T22:50:12.211Z,31.02
2022-08-25T22:52:44.431Z,30.95
2022-08-25T22:55:16.281Z,30.96
2022-08-25T22:57:46.871Z,30.98
2022-08-25T23:00:17.683Z,30.97
2022-08-25T23:02:54.159Z,30.90
2022-08-25T23:05:24.487Z,30.92
2022-08-25T23:07:55.081Z,30.87
2022-08-25T23:10:26.677Z,30.94
2022-08-25T23:12:57.348Z,30.95
2022-08-25T23:15:27.638Z,30.69
2022-08-25T23:17:58.527Z,30.60
2022-08-25T23:20:46.649Z,30.54
2022-08-25T23:23:18.058Z,30.32
2022-08-25T23:25:48.171Z,30.36
2022-08-25T23:28:19.138Z,30.27
2022-08-25T23:30:51.786Z,30.31
2022-08-25T23:33:29.864Z,29.60
2022-08-25T23:36:05.916Z,29.46
2022-08-25T23:38:37.679Z,29.21
2022-08-25T23:41:11.591Z,29.17
2022-08-25T23:43:43.393Z,29.71
2022-08-25T23:46:18.374Z,29.59
2022-08-25T23:48:49.855Z,29.34
2022-08-25T23:51:25.161Z,29.78
2022-08-25T23:53:56.987Z,29.70
2022-08-25T23:56:32.101Z,29.51
2022-08-25T23:59:04.727Z,29.60
